Time;durP1;ratioP1;P1;durP2;ratioP2;P2;SDS_P1;SDS_P2;PMS_P1;PMS_P2;Temp;Humidity;BMP_temperature;BMP_pressure;BME280_temperature;BME280_humidity;BME280_pressure;Samples;Min_cycle;Max_cycle;Signal;HPM_P1;HPM_P2
2021/01/06 00:00:19;;;;;;;;;;;;;;;2.16;100.00;100599.69;5113207;28;20335;-69
2021/01/06 00:02:44;;;;;;;;;;;;;;;2.17;100.00;100595.19;5113172;28;19924;-69
2021/01/06 00:05:11;;;;;;;;;;;;;;;2.14;100.00;100601.56;5113082;28;19949;-70
2021/01/06 00:07:40;;;;;;;;;;;;;;;2.15;100.00;100605.09;5112875;28;20561;-70
2021/01/06 00:10:07;;;;;;;;;;;;;;;2.14;100.00;100598.03;5112909;28;20389;-69
2021/01/06 00:12:33;;;;;;;;;;;;;;;2.12;100.00;100595.41;5112797;28;19932;-69
2021/01/06 00:14:59;;;;;;;;;;;;;;;2.10;100.00;100596.41;5113083;28;19966;-69
2021/01/06 00:17:25;;;;;;;;;;;;;;;2.09;100.00;100594.69;5112792;28;19924;-69
2021/01/06 00:19:51;;;;;;;;;;;;;;;2.06;100.00;100594.81;5112894;28;19931;-70
2021/01/06 00:22:17;;;;;;;;;;;;;;;2.04;100.00;100586.88;5111095;28;19933;-69
2021/01/06 00:24:43;;;;;;;;;;;;;;;2.06;100.00;100585.00;5112724;28;20015;-69
2021/01/06 00:27:09;;;;;;;;;;;;;;;2.04;100.00;100584.19;5112613;28;20355;-69
2021/01/06 00:29:35;;;;;;;;;;;;;;;2.05;100.00;100587.75;5112397;28;19978;-70
2021/01/06 00:32:01;;;;;;;;;;;;;;;2.04;100.00;100575.31;5112881;28;20376;-69
2021/01/06 00:34:26;;;;;;;;;;;;;;;2.04;100.00;100578.84;5112683;28;19931;-69
2021/01/06 00:36:52;;;;;;;;;;;;;;;2.05;100.00;100579.72;5112382;28;19931;-69
2021/01/06 00:39:18;;;;;;;;;;;;;;;2.02;100.00;100570.03;5112449;28;19928;-69
2021/01/06 00:41:44;;;;;;;;;;;;;;;2.01;100.00;100579.84;5112501;28;20623;-69
2021/01/06 00:44:12;;;;;;;;;;;;;;;2.00;100.00;100570.09;5111805;28;22597;-69
2021/01/06 00:46:38;;;;;;;;;;;;;;;1.98;100.00;100571.13;5112387;28;19974;-69
2021/01/06 00:49:05;;;;;;;;;;;;;;;1.97;100.00;100567.53;5111023;28;20018;-69
2021/01/06 00:51:32;;;;;;;;;;;;;;;1.97;100.00;100572.06;5111229;28;19959;-69
2021/01/06 00:53:57;;;;;;;;;;;;;;;1.94;100.00;100561.50;5112295;28;19931;-69
2021/01/06 00:56:27;;;;;;;;;;;;;;;1.91;100.00;100562.50;5111103;28;19941;-68
2021/01/06 00:58:54;;;;;;;;;;;;;;;1.90;100.00;100560.75;5111207;28;19932;-69
2021/01/06 01:01:21;;;;;;;;;;;;;;;1.91;100.00;100566.97;5111128;28;19974;-69
2021/01/06 01:03:47;;;;;;;;;;;;;;;1.87;100.00;100566.28;5111139;28;19924;-68
2021/01/06 01:06:21;;;;;;;;;;;;;;;1.87;100.00;100570.75;5110966;28;19924;-68
2021/01/06 01:08:47;;;;;;;;;;;;;;;1.83;100.00;100560.19;5111969;28;19924;-69
2021/01/06 01:11:12;;;;;;;;;;;;;;;1.81;100.00;100551.34;5112266;28;19976;-68
2021/01/06 01:13:38;;;;;;;;;;;;;;;1.80;100.00;100552.31;5112223;28;20290;-69
2021/01/06 01:16:04;;;;;;;;;;;;;;;1.78;100.00;100545.28;5112005;28;19923;-68
2021/01/06 01:18:31;;;;;;;;;;;;;;;1.75;100.00;100545.41;5112241;28;20632;-69
2021/01/06 01:20:57;;;;;;;;;;;;;;;1.73;100.00;100542.81;5112078;28;19963;-69
2021/01/06 01:23:25;;;;;;;;;;;;;;;1.72;100.00;100545.56;5112096;28;19924;-69
2021/01/06 01:25:50;;;;;;;;;;;;;;;1.69;100.00;100538.56;5111816;28;19924;-69
2021/01/06 01:28:18;;;;;;;;;;;;;;;1.71;100.00;100535.81;5112128;28;20297;-69
2021/01/06 01:30:44;;;;;;;;;;;;;;;1.69;100.00;100538.56;5112000;28;19966;-69
2021/01/06 01:33:11;;;;;;;;;;;;;;;1.69;100.00;100538.56;5112462;28;19924;-68
2021/01/06 01:35:38;;;;;;;;;;;;;;;1.69;100.00;100535.88;5115783;28;19955;-69
2021/01/06 01:38:04;;;;;;;;;;;;;;;1.67;100.00;100524.38;5115945;28;19967;-69
2021/01/06 01:40:32;;;;;;;;;;;;;;;1.65;100.00;100521.75;5115942;28;20010;-69
2021/01/06 01:43:01;;;;;;;;;;;;;;;1.65;100.00;100526.25;5115281;28;19967;-69
2021/01/06 01:45:28;;;;;;;;;;;;;;;1.64;100.00;100517.38;5115784;28;19993;-69
2021/01/06 01:47:58;;;;;;;;;;;;;;;1.65;100.00;100518.25;5115659;28;19977;-69
2021/01/06 01:50:24;;;;;;;;;;;;;;;1.64;100.00;100516.50;5115679;28;19955;-69
2021/01/06 01:52:52;;;;;;;;;;;;;;;1.63;100.00;100510.28;5115714;28;19927;-69
2021/01/06 01:55:20;;;;;;;;;;;;;;;1.63;100.00;100509.41;5115645;28;19970;-69
2021/01/06 01:57:48;;;;;;;;;;;;;;;1.61;100.00;100511.28;5115375;28;19931;-69
2021/01/06 02:00:15;;;;;;;;;;;;;;;1.63;100.00;100509.41;5115403;28;20019;-69
2021/01/06 02:02:47;;;;;;;;;;;;;;;1.63;100.00;100504.03;5115512;28;19923;-69
2021/01/06 02:05:15;;;;;;;;;;;;;;;1.59;100.00;100500.66;5115468;28;19924;-69
2021/01/06 02:07:45;;;;;;;;;;;;;;;1.59;100.00;100497.09;5115171;28;19978;-69
2021/01/06 02:10:16;;;;;;;;;;;;;;;1.57;100.00;100488.31;5115379;28;19963;-69
2021/01/06 02:12:45;;;;;;;;;;;;;;;1.60;100.00;100494.34;5114255;28;19990;-69
2021/01/06 02:15:16;;;;;;;;;;;;;;;1.59;100.00;100489.97;5115463;28;20061;-69
2021/01/06 02:17:42;;;;;;;;;;;;;;;1.57;100.00;100488.31;5114917;28;19930;-69
2021/01/06 02:20:12;;;;;;;;;;;;;;;1.55;100.00;100480.34;5115112;28;20320;-69
2021/01/06 02:22:38;;;;;;;;;;;;;;;1.55;100.00;100483.03;5115063;28;20024;-69
2021/01/06 02:25:05;;;;;;;;;;;;;;;1.56;100.00;100483.88;5115108;28;20026;-69
2021/01/06 02:27:31;;;;;;;;;;;;;;;1.54;100.00;100489.31;5114893;28;19973;-69
2021/01/06 02:29:56;;;;;;;;;;;;;;;1.54;100.00;100493.78;5115022;28;19931;-69
2021/01/06 02:32:22;;;;;;;;;;;;;;;1.52;100.00;100487.66;5114892;28;20389;-69
2021/01/06 02:34:48;;;;;;;;;;;;;;;1.53;100.00;100490.25;5114829;28;20031;-69
2021/01/06 02:37:14;;;;;;;;;;;;;;;1.52;100.00;100485.81;5114583;28;20022;-69
2021/01/06 02:39:40;;;;;;;;;;;;;;;1.49;100.00;100483.31;5114675;28;20000;-69
2021/01/06 02:42:07;;;;;;;;;;;;;;;1.47;100.00;100486.06;5114829;28;19931;-69
2021/01/06 02:44:33;;;;;;;;;;;;;;;1.47;100.00;100482.50;5114467;28;20010;-69
2021/01/06 02:46:58;;;;;;;;;;;;;;;1.45;100.00;100479.03;5113890;28;20285;-69
2021/01/06 02:49:25;;;;;;;;;;;;;;;1.45;100.00;100482.56;5114706;28;19930;-69
2021/01/06 02:51:53;;;;;;;;;;;;;;;1.44;100.00;100477.31;5114279;28;20018;-69
2021/01/06 02:54:21;;;;;;;;;;;;;;;1.41;100.00;100469.44;5114496;28;20069;-69
2021/01/06 02:56:49;;;;;;;;;;;;;;;1.40;100.00;100468.53;5114285;28;19970;-69
2021/01/06 02:59:16;;;;;;;;;;;;;;;1.42;100.00;100471.19;5114515;28;20389;-69
2021/01/06 03:01:43;;;;;;;;;;;;;;;1.38;100.00;100467.78;5114415;28;19958;-69
2021/01/06 03:04:11;;;;;;;;;;;;;;;1.40;100.00;100473.91;5114282;28;19931;-69
2021/01/06 03:06:39;;;;;;;;;;;;;;;1.39;100.00;100466.84;5114020;28;20030;-69
2021/01/06 03:09:09;;;;;;;;;;;;;;;1.36;100.00;100461.59;5114029;28;20403;-69
2021/01/06 03:11:35;;;;;;;;;;;;;;;1.36;100.00;100460.75;5114472;28;20014;-69
2021/01/06 03:14:01;;;;;;;;;;;;;;;1.34;100.00;100450.13;5114048;28;20045;-69
2021/01/06 03:16:27;;;;;;;;;;;;;;;1.30;100.00;100461.91;5113832;28;19924;-69
2021/01/06 03:18:55;;;;;;;;;;;;;;;1.29;100.00;100455.69;5114119;28;19930;-69
2021/01/06 03:21:20;;;;;;;;;;;;;;;1.25;100.00;100450.56;5113892;28;20433;-69
2021/01/06 03:23:49;;;;;;;;;;;;;;;1.23;100.00;100452.44;5113931;28;19928;-69
2021/01/06 03:26:17;;;;;;;;;;;;;;;1.22;100.00;100445.38;5113474;28;20023;-69
2021/01/06 03:28:45;;;;;;;;;;;;;;;1.20;100.00;100445.41;5113948;28;20019;-69
2021/01/06 03:31:14;;;;;;;;;;;;;;;1.20;100.00;100442.75;5113772;28;20026;-69
2021/01/06 03:33:43;;;;;;;;;;;;;;;1.20;100.00;100439.22;5113709;28;20039;-69
2021/01/06 03:36:13;;;;;;;;;;;;;;;1.18;100.00;100436.63;5113071;28;20361;-69
2021/01/06 03:38:41;;;;;;;;;;;;;;;1.17;100.00;100434.88;5113524;28;20014;-68
2021/01/06 03:41:07;;;;;;;;;;;;;;;1.12;100.00;100435.09;5113547;28;20019;-69
2021/01/06 03:43:34;;;;;;;;;;;;;;;1.11;100.00;100433.34;5113184;28;20300;-68
2021/01/06 03:46:02;;;;;;;;;;;;;;;1.10;100.00;100428.94;5113463;28;19924;-69
2021/01/06 03:48:30;;;;;;;;;;;;;;;1.09;100.00;100437.91;5113526;28;19923;-69
2021/01/06 03:51:00;;;;;;;;;;;;;;;1.07;100.00;100431.78;5113338;28;19955;-69
2021/01/06 03:53:30;;;;;;;;;;;;;;;1.06;100.00;100429.16;5113376;28;20026;-69
2021/01/06 03:55:59;;;;;;;;;;;;;;;1.04;100.00;100428.34;5113043;28;20385;-69
2021/01/06 03:58:30;;;;;;;;;;;;;;;1.04;100.00;100425.69;5112233;28;20022;-68
2021/01/06 04:00:58;;;;;;;;;;;;;;;1.04;100.00;100418.53;5113014;28;20010;-68
2021/01/06 04:03:26;;;;;;;;;;;;;;;1.00;100.00;100424.94;5113137;28;19955;-68
2021/01/06 04:05:54;;;;;;;;;;;;;;;0.97;100.00;100417.94;5112940;28;20369;-69
2021/01/06 04:08:22;;;;;;;;;;;;;;;0.93;100.00;100415.50;5113052;28;20022;-69
2021/01/06 04:10:52;;;;;;;;;;;;;;;0.96;100.00;100416.22;5113083;28;20451;-69
2021/01/06 04:13:17;;;;;;;;;;;;;;;0.94;100.00;100417.22;5113051;28;20008;-68
2021/01/06 04:15:43;;;;;;;;;;;;;;;0.88;100.00;100405.00;5112693;28;19924;-69
2021/01/06 04:18:09;;;;;;;;;;;;;;;0.91;100.00;100409.34;5112644;28;19936;-68
2021/01/06 04:20:36;;;;;;;;;;;;;;;0.88;100.00;100404.13;5112768;28;19923;-70
2021/01/06 04:23:04;;;;;;;;;;;;;;;0.88;100.00;100412.16;5112846;28;19923;-69
2021/01/06 04:25:31;;;;;;;;;;;;;;;0.84;100.00;100408.75;5112682;28;19930;-68
2021/01/06 04:27:58;;;;;;;;;;;;;;;0.83;100.00;100407.03;5112740;28;19966;-69
2021/01/06 04:30:27;;;;;;;;;;;;;;;0.81;100.00;100406.22;5112668;28;19962;-68
2021/01/06 04:32:53;;;;;;;;;;;;;;;0.78;100.00;100398.38;5112914;28;20364;-68
2021/01/06 04:35:19;;;;;;;;;;;;;;;0.77;100.00;100397.47;5112268;28;20014;-69
2021/01/06 04:37:45;;;;;;;;;;;;;;;0.77;100.00;100394.81;5112424;28;20009;-69
2021/01/06 04:40:14;;;;;;;;;;;;;;;0.73;100.00;100393.22;5112454;28;20338;-68
2021/01/06 04:42:40;;;;;;;;;;;;;;;0.77;100.00;100391.28;5112498;28;20026;-69
2021/01/06 04:45:07;;;;;;;;;;;;;;;0.80;100.00;100393.78;5112403;28;20015;-69
2021/01/06 04:47:54;;;;;;;;;;;;;;;0.77;100.00;100386.78;5112296;28;19969;-69
2021/01/06 04:50:50;;;;;;;;;;;;;;;0.73;100.00;100390.53;5112095;28;20022;-69
2021/01/06 04:53:21;;;;;;;;;;;;;;;0.69;100.00;100386.28;5112428;28;20018;-69
2021/01/06 04:55:53;;;;;;;;;;;;;;;0.69;100.00;100382.75;5112223;28;20026;-68
2021/01/06 04:58:25;;;;;;;;;;;;;;;0.69;100.00;100382.75;5112455;28;20440;-68
2021/01/06 05:00:53;;;;;;;;;;;;;;;0.68;100.00;100384.53;5112347;28;20432;-69
2021/01/06 05:03:23;;;;;;;;;;;;;;;0.67;100.00;100380.16;5112286;28;19973;-69
2021/01/06 05:05:55;;;;;;;;;;;;;;;0.63;100.00;100376.75;5112277;28;19967;-68
2021/01/06 05:08:25;;;;;;;;;;;;;;;0.63;100.00;100378.56;5112966;28;19924;-70
2021/01/06 05:10:54;;;;;;;;;;;;;;;0.62;100.00;100377.69;5116203;28;20018;-70
2021/01/06 05:13:23;;;;;;;;;;;;;;;0.63;100.00;100381.22;5116450;28;19971;-70
2021/01/06 05:15:53;;;;;;;;;;;;;;;0.60;100.00;100382.25;5116399;28;19963;-70
2021/01/06 05:18:18;;;;;;;;;;;;;;;0.57;100.00;100378.81;5116373;28;19965;-69
2021/01/06 05:20:44;;;;;;;;;;;;;;;0.54;100.00;100384.31;5116290;28;19982;-69
2021/01/06 05:23:16;;;;;;;;;;;;;;;0.55;100.00;100372.66;5116313;28;19932;-70
2021/01/06 05:25:41;;;;;;;;;;;;;;;0.58;100.00;100380.56;5116035;28;19934;-69
2021/01/06 05:28:11;;;;;;;;;;;;;;;0.54;100.00;100376.31;5116327;28;19924;-69
2021/01/06 05:30:37;;;;;;;;;;;;;;;0.56;100.00;100374.41;5115549;28;19951;-70
2021/01/06 05:33:05;;;;;;;;;;;;;;;0.52;100.00;100383.50;5115975;28;20495;-70
2021/01/06 05:35:35;;;;;;;;;;;;;;;0.53;100.00;100378.09;5115938;28;19924;-70
2021/01/06 05:38:01;;;;;;;;;;;;;;;0.50;100.00;100375.56;5116082;28;20358;-70
2021/01/06 05:40:29;;;;;;;;;;;;;;;0.52;100.00;100383.50;5099334;28;19951;-69
2021/01/06 05:42:56;;;;;;;;;;;;;;;0.50;100.00;100381.75;5095271;28;20018;-69
2021/01/06 05:45:24;;;;;;;;;;;;;;;0.41;100.00;100381.31;5111428;28;21506;-67
2021/01/06 05:47:51;;;;;;;;;;;;;;;0.40;100.00;100384.91;5110942;28;20030;-68
2021/01/06 05:50:20;;;;;;;;;;;;;;;0.36;100.00;100381.53;5112839;28;19969;-68
2021/01/06 05:52:52;;;;;;;;;;;;;;;0.30;100.00;100376.44;5095305;28;20752;-68
2021/01/06 05:55:19;;;;;;;;;;;;;;;0.28;100.00;100379.19;5095722;28;20041;-68
2021/01/06 05:57:46;;;;;;;;;;;;;;;0.28;100.00;100376.53;5115530;28;20042;-68
2021/01/06 06:00:16;;;;;;;;;;;;;;;0.23;100.00;100369.63;5115060;28;19931;-68
2021/01/06 06:02:50;;;;;;;;;;;;;;;0.22;100.00;100375.94;5107480;28;19928;-68
2021/01/06 06:05:27;;;;;;;;;;;;;;;0.19;100.00;100371.59;5095050;28;19986;-68
2021/01/06 06:08:11;;;;;;;;;;;;;;;0.11;100.00;100369.25;5095687;28;20035;-68
2021/01/06 06:10:57;;;;;;;;;;;;;;;0.08;100.00;100365.84;5092701;28;19923;-68
2021/01/06 06:13:38;;;;;;;;;;;;;;;0.02;100.00;100369.66;5091849;28;20379;-68
2021/01/06 06:16:22;;;;;;;;;;;;;;;-0.03;100.00;100364.53;5077688;28;20018;-69
2021/01/06 06:18:59;;;;;;;;;;;;;;;-0.07;100.00;100362.03;5110184;28;20015;-68
2021/01/06 06:21:32;;;;;;;;;;;;;;;-0.11;100.00;100361.28;5112843;28;19979;-69
2021/01/06 06:24:13;;;;;;;;;;;;;;;-0.15;100.00;100364.16;5112808;28;20019;-69
2021/01/06 06:26:45;;;;;;;;;;;;;;;-0.21;100.00;100358.16;5112760;28;20022;-68
2021/01/06 06:29:17;;;;;;;;;;;;;;;-0.21;100.00;100359.97;5095025;28;20404;-68
2021/01/06 06:31:46;;;;;;;;;;;;;;;-0.24;100.00;100354.72;5097385;28;19932;-69
2021/01/06 06:34:13;;;;;;;;;;;;;;;-0.26;100.00;100351.28;5114963;28;20372;-69
2021/01/06 06:36:42;;;;;;;;;;;;;;;-0.26;100.00;100351.28;5114056;28;20034;-69
2021/01/06 06:39:13;;;;;;;;;;;;;;;-0.25;100.00;100355.69;5114826;28;20027;-69
2021/01/06 06:41:41;;;;;;;;;;;;;;;-0.28;100.00;100354.03;5112246;28;19988;-69
2021/01/06 06:44:17;;;;;;;;;;;;;;;-0.30;100.00;100355.88;5099656;28;20666;-69
2021/01/06 06:46:52;;;;;;;;;;;;;;;-0.32;100.00;100354.19;5102436;28;20600;-68
2021/01/06 06:49:21;;;;;;;;;;;;;;;-0.34;100.00;100359.59;5114408;28;20019;-68
2021/01/06 06:51:53;;;;;;;;;;;;;;;-0.33;100.00;100358.69;5113663;28;19976;-68
2021/01/06 06:54:24;;;;;;;;;;;;;;;-0.33;100.00;100358.69;5102661;28;19967;-68
2021/01/06 06:56:52;;;;;;;;;;;;;;;-0.34;100.00;100354.25;5093836;28;19958;-68
2021/01/06 06:59:21;;;;;;;;;;;;;;;-0.32;100.00;100354.19;5104669;28;20281;-69
2021/01/06 07:01:48;;;;;;;;;;;;;;;-0.32;100.00;100360.41;5113748;28;20611;-68
2021/01/06 07:04:17;;;;;;;;;;;;;;;-0.31;100.00;100359.47;5112210;28;20443;-67
2021/01/06 07:06:50;;;;;;;;;;;;;;;-0.34;100.00;100354.25;5110673;28;20020;-67
2021/01/06 07:09:19;;;;;;;;;;;;;;;-0.34;100.00;100354.25;5113288;28;20384;-67
2021/01/06 07:11:46;;;;;;;;;;;;;;;-0.32;100.00;100356.88;5114004;28;19959;-68
2021/01/06 07:14:18;;;;;;;;;;;;;;;-0.32;100.00;100352.41;5109407;28;20022;-68
2021/01/06 07:16:56;;;;;;;;;;;;;;;-0.30;100.00;100355.88;5093396;28;20015;-68
2021/01/06 07:19:24;;;;;;;;;;;;;;;-0.31;100.00;100346.13;5113733;28;20046;-67
2021/01/06 07:21:53;;;;;;;;;;;;;;;-0.31;100.00;100354.13;5113146;28;19966;-68
2021/01/06 07:24:20;;;;;;;;;;;;;;;-0.28;100.00;100355.81;5109042;28;19963;-67
2021/01/06 07:26:48;;;;;;;;;;;;;;;-0.25;100.00;100364.56;5113565;28;19928;-68
2021/01/06 07:29:16;;;;;;;;;;;;;;;-0.25;100.00;100369.88;5102754;28;19931;-68
2021/01/06 07:31:51;;;;;;;;;;;;;;;-0.25;100.00;100375.22;5113184;28;19924;-69
2021/01/06 07:34:19;;;;;;;;;;;;;;;-0.25;100.00;100375.22;5102815;28;19950;-68
2021/01/06 07:36:47;;;;;;;;;;;;;;;-0.23;100.00;100368.03;5108311;28;19927;-68
2021/01/06 07:39:19;;;;;;;;;;;;;;;-0.20;100.00;100367.00;5098915;28;20011;-68
2021/01/06 07:41:45;;;;;;;;;;;;;;;-0.22;100.00;100372.41;5096387;27;20010;-68
2021/01/06 07:44:19;;;;;;;;;;;;;;;-0.21;100.00;100375.97;5111615;27;20399;-68
2021/01/06 07:46:47;;;;;;;;;;;;;;;-0.17;100.00;100369.56;5092728;28;20404;-68
2021/01/06 07:49:32;;;;;;;;;;;;;;;-0.18;100.00;100367.81;5092946;28;19924;-68
2021/01/06 07:52:00;;;;;;;;;;;;;;;-0.19;100.00;100366.97;5094577;28;19928;-68
2021/01/06 07:54:33;;;;;;;;;;;;;;;-0.12;100.00;100367.56;5105058;28;20011;-69
2021/01/06 07:57:06;;;;;;;;;;;;;;;-0.13;100.00;100368.50;5112634;28;20018;-68
2021/01/06 07:59:35;;;;;;;;;;;;;;;-0.11;100.00;100366.63;5109692;28;19960;-68
2021/01/06 08:02:05;;;;;;;;;;;;;;;-0.11;100.00;100361.28;5101356;28;20010;-68
2021/01/06 08:04:32;;;;;;;;;;;;;;;-0.06;100.00;100363.78;5098674;28;19956;-68
2021/01/06 08:06:59;;;;;;;;;;;;;;;-0.06;100.00;100359.28;5105884;28;19924;-67
2021/01/06 08:09:30;;;;;;;;;;;;;;;-0.04;100.00;100359.22;5102210;28;19930;-68
2021/01/06 08:11:57;;;;;;;;;;;;;;;0.02;100.00;100364.31;5101424;28;19924;-68
2021/01/06 08:14:25;;;;;;;;;;;;;;;0.05;100.00;100361.50;5104296;28;19951;-68
2021/01/06 08:16:53;;;;;;;;;;;;;;;0.04;100.00;100353.56;5101515;28;20434;-68
2021/01/06 08:19:20;;;;;;;;;;;;;;;0.06;100.00;100365.06;5112674;28;20072;-68
2021/01/06 08:21:51;;;;;;;;;;;;;;;0.13;100.00;100359.38;5100323;28;19931;-68
2021/01/06 08:24:23;;;;;;;;;;;;;;;0.17;100.00;100357.44;5093526;28;20285;-69
2021/01/06 08:26:49;;;;;;;;;;;;;;;0.22;100.00;100362.59;5110412;28;20014;-68
2021/01/06 08:29:18;;;;;;;;;;;;;;;0.28;100.00;100367.63;5111616;28;20427;-68
2021/01/06 08:31:45;;;;;;;;;;;;;;;0.34;100.00;100367.38;5105917;28;19924;-68
2021/01/06 08:34:19;;;;;;;;;;;;;;;0.41;100.00;100366.16;5105544;28;20403;-68
2021/01/06 08:36:45;;;;;;;;;;;;;;;0.42;100.00;100364.38;5109430;28;19963;-69
2021/01/06 08:39:15;;;;;;;;;;;;;;;0.41;100.00;100357.28;5100058;28;19976;-69
2021/01/06 08:41:42;;;;;;;;;;;;;;;0.38;100.00;100366.28;5112232;28;20035;-69
2021/01/06 08:44:25;;;;;;;;;;;;;;;0.36;100.00;100349.50;5110195;28;19924;-69
2021/01/06 08:46:55;;;;;;;;;;;;;;;0.41;100.00;100350.13;5111618;28;20018;-69
2021/01/06 08:49:22;;;;;;;;;;;;;;;0.42;100.00;100349.19;5103516;28;19924;-69
2021/01/06 08:51:48;;;;;;;;;;;;;;;0.43;100.00;100355.44;5102946;28;19934;-69
2021/01/06 08:54:15;;;;;;;;;;;;;;;0.52;100.00;100359.47;5106682;28;19924;-68
2021/01/06 08:56:40;;;;;;;;;;;;;;;0.51;100.00;100358.59;5109222;28;20014;-68
2021/01/06 08:59:23;;;;;;;;;;;;;;;0.38;100.00;100360.94;5107771;28;19931;-68
2021/01/06 09:01:50;;;;;;;;;;;;;;;0.46;100.00;100361.47;5096398;28;20010;-68
2021/01/06 09:04:19;;;;;;;;;;;;;;;0.53;100.00;100364.72;5108121;28;19924;-68
2021/01/06 09:06:49;;;;;;;;;;;;;;;0.67;100.00;100366.78;5110602;28;20439;-68
2021/01/06 09:09:25;;;;;;;;;;;;;;;0.72;100.00;100371.91;5110622;28;20026;-68
2021/01/06 09:11:54;;;;;;;;;;;;;;;0.67;100.00;100369.47;5090318;28;20460;-68
2021/01/06 09:14:27;;;;;;;;;;;;;;;0.74;100.00;100370.06;5091609;28;19936;-68
2021/01/06 09:16:55;;;;;;;;;;;;;;;0.78;100.00;100367.16;5091223;28;20058;-68
2021/01/06 09:19:26;;;;;;;;;;;;;;;0.92;100.00;100365.63;5091399;28;19982;-68
2021/01/06 09:21:52;;;;;;;;;;;;;;;0.92;100.00;100366.53;5091286;28;20022;-69
2021/01/06 09:24:19;;;;;;;;;;;;;;;1.04;100.00;100375.75;5090790;28;20293;-68
2021/01/06 09:26:46;;;;;;;;;;;;;;;1.09;100.00;100376.41;5103045;28;19924;-68
2021/01/06 09:29:14;;;;;;;;;;;;;;;1.09;100.00;100368.38;5103095;28;20018;-68
2021/01/06 09:31:41;;;;;;;;;;;;;;;1.09;100.00;100373.72;5106893;28;19939;-68
2021/01/06 09:34:07;;;;;;;;;;;;;;;1.05;100.00;100374.81;5105557;28;20027;-70
2021/01/06 09:36:34;;;;;;;;;;;;;;;1.07;100.00;100372.94;5110675;28;19935;-69
2021/01/06 09:39:01;;;;;;;;;;;;;;;0.93;100.00;100370.91;5097501;28;19935;-68
2021/01/06 09:41:28;;;;;;;;;;;;;;;1.04;100.00;100370.41;5101091;28;20020;-68
2021/01/06 09:43:59;;;;;;;;;;;;;;;1.06;100.00;100371.22;5100948;28;19931;-68
2021/01/06 09:46:31;;;;;;;;;;;;;;;1.05;100.00;100363.28;5123761;28;20015;-68
2021/01/06 09:48:58;;;;;;;;;;;;;;;1.05;100.00;100368.63;5095697;28;20069;-68
2021/01/06 09:51:24;;;;;;;;;;;;;;;1.09;100.00;100364.84;5092289;28;19923;-68
2021/01/06 09:53:53;;;;;;;;;;;;;;;1.10;100.00;100356.75;5092397;28;19971;-68
2021/01/06 09:56:20;;;;;;;;;;;;;;;1.09;100.00;100363.03;5115338;28;20274;-68
2021/01/06 09:58:47;;;;;;;;;;;;;;;1.06;100.00;100357.00;5102813;28;20300;-68
2021/01/06 10:01:17;;;;;;;;;;;;;;;1.06;100.00;100357.00;5106760;28;19962;-68
2021/01/06 10:03:44;;;;;;;;;;;;;;;1.08;100.00;100353.31;5098062;28;19977;-68
2021/01/06 10:06:17;;;;;;;;;;;;;;;1.16;100.00;100361.81;5113785;28;19928;-68
2021/01/06 10:08:46;;;;;;;;;;;;;;;1.22;100.00;100351.78;5112590;28;20015;-68
2021/01/06 10:11:27;;;;;;;;;;;;;;;1.27;100.00;100349.72;5099478;28;19931;-67
2021/01/06 10:14:03;;;;;;;;;;;;;;;1.31;100.00;100348.63;5108087;28;19924;-68
2021/01/06 10:16:33;;;;;;;;;;;;;;;1.43;100.00;100339.13;5104200;28;20043;-68
2021/01/06 10:19:06;;;;;;;;;;;;;;;1.37;100.00;100336.78;5095394;28;20448;-68
2021/01/06 10:21:34;;;;;;;;;;;;;;;1.38;100.00;100335.81;5110422;28;19928;-67
2021/01/06 10:24:14;;;;;;;;;;;;;;;1.24;100.00;100324.00;5108137;28;20392;-67
2021/01/06 10:26:47;;;;;;;;;;;;;;;1.37;100.00;100323.41;5109425;28;19977;-68
2021/01/06 10:29:17;;;;;;;;;;;;;;;1.32;100.00;100318.28;5112643;28;20017;-67
2021/01/06 10:32:01;;;;;;;;;;;;;;;1.36;100.00;100317.16;5099267;28;19928;-68
2021/01/06 10:34:32;;;;;;;;;;;;;;;1.42;100.00;100318.72;5098774;28;19943;-68
2021/01/06 10:37:05;;;;;;;;;;;;;;;1.47;100.00;100317.53;5100594;28;20018;-68
2021/01/06 10:39:37;;;;;;;;;;;;;;;1.54;100.00;100319.88;5113979;28;19924;-68
2021/01/06 10:42:05;;;;;;;;;;;;;;;1.48;100.00;100313.03;5105804;28;20019;-68
2021/01/06 10:44:33;;;;;;;;;;;;;;;1.52;100.00;100313.75;5093401;28;19924;-68
2021/01/06 10:47:23;;;;;;;;;;;;;;;1.55;100.00;100311.78;5099931;28;19930;-68
2021/01/06 10:49:54;;;;;;;;;;;;;;;1.57;100.00;100306.38;5113600;28;20352;-68
2021/01/06 10:52:22;;;;;;;;;;;;;;;1.66;100.00;100316.59;5103631;28;19935;-68
2021/01/06 10:54:54;;;;;;;;;;;;;;;1.60;100.00;100303.53;5093496;28;19959;-69
2021/01/06 10:57:24;;;;;;;;;;;;;;;1.55;100.00;100305.56;5104732;28;19959;-68
2021/01/06 11:00:04;;;;;;;;;;;;;;;1.45;100.00;100298.00;5112195;28;20523;-68
2021/01/06 11:02:35;;;;;;;;;;;;;;;1.42;100.00;100295.47;5113587;28;19928;-68
2021/01/06 11:05:06;;;;;;;;;;;;;;;1.44;100.00;100295.41;5111504;28;19928;-68
2021/01/06 11:07:39;;;;;;;;;;;;;;;1.44;100.00;100288.25;5104292;28;19931;-69
2021/01/06 11:10:19;;;;;;;;;;;;;;;1.42;100.00;100290.13;5093274;28;20028;-68
2021/01/06 11:12:52;;;;;;;;;;;;;;;1.37;100.00;100284.16;5092871;28;20437;-67
2021/01/06 11:15:24;;;;;;;;;;;;;;;1.47;100.00;100285.44;5096077;28;20364;-68
2021/01/06 11:18:02;;;;;;;;;;;;;;;1.54;100.00;100291.34;5098748;28;20353;-68
2021/01/06 11:20:33;;;;;;;;;;;;;;;1.62;100.00;100280.25;5113078;28;19955;-68
2021/01/06 11:23:17;;;;;;;;;;;;;;;1.76;100.00;100283.06;5104248;28;20044;-68
2021/01/06 11:25:48;;;;;;;;;;;;;;;1.82;100.00;100281.91;5092294;28;20345;-68
2021/01/06 11:28:30;;;;;;;;;;;;;;;1.74;100.00;100276.94;5092862;28;19931;-68
2021/01/06 11:31:15;;;;;;;;;;;;;;;1.74;100.00;100271.56;5092377;28;20070;-69
2021/01/06 11:33:41;;;;;;;;;;;;;;;1.68;100.00;100269.22;5108090;28;19986;-68
2021/01/06 11:36:22;;;;;;;;;;;;;;;1.56;100.00;100264.50;5112402;28;19930;-68
2021/01/06 11:38:50;;;;;;;;;;;;;;;1.58;100.00;100254.59;5110620;28;19934;-68
2021/01/06 11:41:17;;;;;;;;;;;;;;;1.59;100.00;100256.28;5099668;28;19954;-68
2021/01/06 11:43:53;;;;;;;;;;;;;;;1.63;100.00;100264.09;5109515;28;19982;-68
2021/01/06 11:46:34;;;;;;;;;;;;;;;1.61;100.00;100255.28;5092253;28;20000;-69
2021/01/06 11:49:14;;;;;;;;;;;;;;;1.60;100.00;100255.38;5092063;28;20031;-68
2021/01/06 11:51:41;;;;;;;;;;;;;;;1.56;100.00;100256.47;5092045;28;20047;-68
2021/01/06 11:54:14;;;;;;;;;;;;;;;1.61;100.00;100255.28;5102409;28;20131;-68
2021/01/06 11:56:42;;;;;;;;;;;;;;;1.57;100.00;100248.34;5112246;28;19970;-68
2021/01/06 11:59:16;;;;;;;;;;;;;;;1.56;100.00;100246.63;5112317;28;19930;-68
2021/01/06 12:01:53;;;;;;;;;;;;;;;1.61;100.00;100252.59;5112398;28;20389;-69
2021/01/06 12:04:23;;;;;;;;;;;;;;;1.56;100.00;100245.75;5111269;28;19928;-69
2021/01/06 12:06:59;;;;;;;;;;;;;;;1.55;100.00;100246.69;5112272;28;20208;-69
2021/01/06 12:09:36;;;;;;;;;;;;;;;1.58;100.00;100244.75;5105001;28;20352;-68
2021/01/06 12:12:14;;;;;;;;;;;;;;;1.57;100.00;100239.47;5111583;28;19924;-67
2021/01/06 12:14:47;;;;;;;;;;;;;;;1.57;100.00;100229.63;5111478;28;19974;-68
2021/01/06 12:17:16;;;;;;;;;;;;;;;1.50;100.00;100237.09;5110184;28;20661;-67
2021/01/06 12:19:51;;;;;;;;;;;;;;;1.46;100.00;100232.00;5111735;28;20364;-67
2021/01/06 12:22:17;;;;;;;;;;;;;;;1.40;100.00;100225.13;5102490;28;19966;-67
2021/01/06 12:24:45;;;;;;;;;;;;;;;1.43;100.00;100230.34;5095344;28;19924;-67
2021/01/06 12:27:29;;;;;;;;;;;;;;;1.46;100.00;100232.84;5092404;28;20022;-67
2021/01/06 12:29:59;;;;;;;;;;;;;;;1.48;100.00;100230.97;5104887;28;20010;-68
2021/01/06 12:32:30;;;;;;;;;;;;;;;1.51;100.00;100235.31;5111426;28;19924;-68
2021/01/06 12:35:01;;;;;;;;;;;;;;;1.52;100.00;100230.81;5107578;28;20022;-68
2021/01/06 12:37:29;;;;;;;;;;;;;;;1.49;100.00;100232.69;5102820;28;19955;-68
2021/01/06 12:40:09;;;;;;;;;;;;;;;1.50;100.00;100228.22;5110635;28;19923;-69
2021/01/06 12:42:37;;;;;;;;;;;;;;;1.47;100.00;100223.00;5110921;28;19924;-67
2021/01/06 12:45:07;;;;;;;;;;;;;;;1.39;100.00;100223.44;5111785;28;20031;-68
2021/01/06 12:47:37;;;;;;;;;;;;;;;1.38;100.00;100229.72;5103182;28;20476;-67